createdAt,value
2017-09-02T00:02:13.000Z,50.9
2017-09-02T00:12:13.000Z,51
2017-09-02T00:22:13.000Z,51.3
2017-09-02T00:32:13.000Z,51.4
2017-09-02T00:42:13.000Z,51.5
2017-09-02T00:52:13.000Z,51.6
2017-09-02T01:02:13.000Z,51.7
2017-09-02T01:12:13.000Z,52.4
2017-09-02T01:22:13.000Z,52.4
2017-09-02T01:32:13.000Z,52.4
2017-09-02T01:42:14.000Z,52.9
2017-09-02T01:52:14.000Z,52.6
2017-09-02T02:02:14.000Z,52.7
2017-09-02T02:12:14.000Z,52.6
2017-09-02T02:22:14.000Z,52.8
2017-09-02T02:32:14.000Z,52.9
2017-09-02T02:42:14.000Z,52.7
2017-09-02T02:52:14.000Z,52.9
2017-09-02T03:02:14.000Z,52.8
2017-09-02T03:12:14.000Z,52.8
2017-09-02T03:22:14.000Z,52.9
2017-09-02T03:32:14.000Z,52.6
2017-09-02T03:42:14.000Z,52.6
2017-09-02T03:52:14.000Z,52.4
2017-09-02T04:02:14.000Z,52.3
2017-09-02T04:12:14.000Z,52.4
2017-09-02T04:22:14.000Z,52.2
2017-09-02T04:32:14.000Z,52.3
2017-09-02T04:42:14.000Z,52.7
2017-09-02T04:52:14.000Z,52.5
2017-09-02T05:02:14.000Z,52.4
2017-09-02T05:12:14.000Z,52.3
2017-09-02T05:22:14.000Z,52.4
2017-09-02T05:32:14.000Z,52.5
2017-09-02T05:42:14.000Z,52.6
2017-09-02T05:52:14.000Z,52.6
2017-09-02T06:02:14.000Z,52.7
2017-09-02T06:12:14.000Z,53.4
2017-09-02T06:22:14.000Z,53.2
2017-09-02T06:32:14.000Z,52.8
2017-09-02T06:42:14.000Z,52.3
2017-09-02T06:52:14.000Z,52.2
2017-09-02T07:02:14.000Z,51.9
2017-09-02T07:12:14.000Z,52
2017-09-02T07:22:14.000Z,52.1
2017-09-02T07:32:14.000Z,52.3
2017-09-02T07:42:14.000Z,52
2017-09-02T07:52:14.000Z,52.3
2017-09-02T08:02:15.000Z,51.8
2017-09-02T08:12:15.000Z,51.4
2017-09-02T08:22:15.000Z,51.2
2017-09-02T08:32:15.000Z,51.2
2017-09-02T08:42:15.000Z,50.9
2017-09-02T08:52:15.000Z,49.9
2017-09-02T09:02:15.000Z,49.6
2017-09-02T09:12:15.000Z,49.7
2017-09-02T09:22:15.000Z,49.9
2017-09-02T09:32:15.000Z,49.8
2017-09-02T09:42:15.000Z,48.8
2017-09-02T09:52:15.000Z,49.1
2017-09-02T10:02:15.000Z,49.6
2017-09-02T10:12:15.000Z,49.5
2017-09-02T10:22:15.000Z,49.9
2017-09-02T10:32:15.000Z,50
2017-09-02T10:42:15.000Z,49.9
2017-09-02T10:52:15.000Z,50.1
2017-09-02T11:02:15.000Z,50.4
2017-09-02T11:12:15.000Z,50.3
2017-09-02T11:22:15.000Z,50.5
2017-09-02T11:32:15.000Z,50.7
2017-09-02T11:42:15.000Z,50.8
2017-09-02T11:52:15.000Z,51
2017-09-02T12:02:15.000Z,51.4
2017-09-02T12:12:15.000Z,51.5
2017-09-02T12:22:15.000Z,51.7
2017-09-02T12:32:15.000Z,51.7
2017-09-02T12:42:15.000Z,52
2017-09-02T12:52:15.000Z,50.7
2017-09-02T13:02:15.000Z,51.5
2017-09-02T13:22:15.000Z,52
2017-09-02T13:32:15.000Z,52.3
2017-09-02T13:42:16.000Z,52.2
2017-09-02T13:52:15.000Z,52.1
2017-09-02T14:02:15.000Z,52.3
2017-09-02T14:12:15.000Z,52.4
2017-09-02T14:22:15.000Z,52.4
2017-09-02T14:32:15.000Z,52.5
2017-09-02T14:42:15.000Z,52.5
2017-09-02T14:52:16.000Z,52.4
2017-09-02T15:02:16.000Z,52.5
2017-09-02T15:22:16.000Z,52.5
2017-09-02T15:32:16.000Z,52.4
2017-09-02T15:42:16.000Z,52.3
2017-09-02T15:52:16.000Z,52.4
2017-09-02T16:02:16.000Z,52.3
2017-09-02T16:12:16.000Z,52.2
2017-09-02T16:22:17.000Z,52.4
2017-09-02T16:32:16.000Z,52.3
2017-09-02T16:42:16.000Z,52.5
2017-09-02T16:52:16.000Z,51.2
2017-09-02T17:02:16.000Z,50.9
2017-09-02T17:12:16.000Z,47.5
2017-09-02T17:22:16.000Z,46.6
2017-09-02T17:32:16.000Z,46.8
2017-09-02T17:42:16.000Z,46.6
2017-09-02T17:52:16.000Z,47.9
2017-09-02T18:02:16.000Z,47.8
2017-09-02T18:12:16.000Z,47.8
2017-09-02T18:32:16.000Z,48.1
2017-09-02T18:52:16.000Z,48.3
2017-09-02T19:02:17.000Z,48.7
2017-09-02T19:12:16.000Z,48.7
2017-09-02T19:22:16.000Z,48.4
2017-09-02T19:32:16.000Z,48.5
2017-09-02T19:42:16.000Z,48.6
2017-09-02T19:52:17.000Z,48.8
2017-09-02T20:02:16.000Z,48.7
2017-09-02T20:12:16.000Z,48.8
2017-09-02T20:22:16.000Z,48.8
2017-09-02T20:32:16.000Z,49
2017-09-02T20:42:16.000Z,49
2017-09-02T20:52:16.000Z,49
2017-09-02T21:02:16.000Z,49.1
2017-09-02T21:12:16.000Z,49.3
2017-09-02T21:22:16.000Z,49.4
2017-09-02T21:32:16.000Z,49.5
2017-09-02T21:42:16.000Z,49.5
2017-09-02T21:52:17.000Z,49.9
2017-09-02T22:02:21.000Z,50
2017-09-02T22:12:17.000Z,48.8
2017-09-02T22:22:17.000Z,48.2
2017-09-02T22:32:17.000Z,48.5
2017-09-02T22:42:17.000Z,48.1
2017-09-02T22:52:17.000Z,48.6
2017-09-02T23:02:17.000Z,49.2
2017-09-02T23:12:17.000Z,49.3
2017-09-02T23:22:17.000Z,49.5
2017-09-02T23:32:17.000Z,49.6
2017-09-02T23:42:17.000Z,49.7
2017-09-02T23:52:17.000Z,49.8
